King Philippos — 9HA3023 — position and weather

sailwx.info

Track history (hours):
 
Tides and Currents Weather Stations Pressure Air Temp Water Temp Dewpoint Dewpoint Depression Visibility Wind Speed Wind Dir Waves Ship Positions

King Philippos

Last reported at 2016-Apr-28 13:26 UTC. Time now 2016-May-04 15:26 UTC.
Position N 35°58' W 005°33'.

Length 250 m; draft 12.8 m.

Type: Tanker. MMSI: 229046000.

Date/timePositionNaut miles runAvg speedWind from/ knotsBaromVisibWave heightAir tempDewpointWater temp
2016-Apr-28 13:26N 35°58' W 005°33'8 9.6
2016-Apr-28 12:33N 36°01' W 005°23'5 5.1
2016-Apr-28 11:33N 36°06' W 005°24'0 0.0
2016-Apr-28 06:28N 36°06' W 005°24'0 0.0
2016-Apr-28 05:31N 36°06' W 005°24'0 0.1
2016-Apr-28 04:31N 36°06' W 005°24'0 0.2
2016-Apr-28 03:16N 36°06' W 005°24'0 0.0
2016-Apr-27 21:31N 36°06' W 005°24'0 0.1
2016-Apr-27 20:10N 36°06' W 005°24'0 0.0
2016-Apr-27 19:28N 36°06' W 005°24'0 0.1
2016-Apr-27 18:31N 36°06' W 005°24'0 0.1
2016-Apr-27 17:28N 36°06' W 005°24'0 0.1
2016-Apr-27 16:31N 36°06' W 005°24'0 0.0
2016-Apr-27 14:31N 36°06' W 005°24'0 0.0
2016-Apr-27 05:28N 36°06' W 005°24'0 0.0
2016-Apr-27 04:22N 36°06' W 005°24'0 0.1
2016-Apr-27 03:28N 36°06' W 005°24'0 0.4
2016-Apr-27 02:33N 36°06' W 005°24'4 4.0
2016-Apr-27 01:33N 36°04' W 005°20'7 7.4
2016-Apr-27 00:33N 35°59' W 005°13'  
Track history (hours):
 
Tides and Currents Weather Stations Pressure Air Temp Water Temp Dewpoint Dewpoint Depression Visibility Wind Speed Wind Dir Waves Ship Positions

King Philippos

Last reported at 2016-Apr-28 13:26 UTC. Time now 2016-May-04 15:26 UTC.
Position N 35°58' W 005°33'.

Length 250 m; draft 12.8 m.

Type: Tanker. MMSI: 229046000.

Date/timePositionNaut miles runAvg speedWind from/ knotsBaromVisibWave heightAir tempDewpointWater temp
2016-Apr-28 13:26N 35°58' W 005°33'8 9.6
2016-Apr-28 12:33N 36°01' W 005°23'5 5.1
2016-Apr-28 11:33N 36°06' W 005°24'0 0.0
2016-Apr-28 06:28N 36°06' W 005°24'0 0.0
2016-Apr-28 05:31N 36°06' W 005°24'0 0.1
2016-Apr-28 04:31N 36°06' W 005°24'0 0.2
2016-Apr-28 03:16N 36°06' W 005°24'0 0.0
2016-Apr-27 21:31N 36°06' W 005°24'0 0.1
2016-Apr-27 20:10N 36°06' W 005°24'0 0.0
2016-Apr-27 19:28N 36°06' W 005°24'0 0.1
2016-Apr-27 18:31N 36°06' W 005°24'0 0.1
2016-Apr-27 17:28N 36°06' W 005°24'0 0.1
2016-Apr-27 16:31N 36°06' W 005°24'0 0.0
2016-Apr-27 14:31N 36°06' W 005°24'0 0.0
2016-Apr-27 05:28N 36°06' W 005°24'0 0.0
2016-Apr-27 04:22N 36°06' W 005°24'0 0.1
2016-Apr-27 03:28N 36°06' W 005°24'0 0.4
2016-Apr-27 02:33N 36°06' W 005°24'4 4.0
2016-Apr-27 01:33N 36°04' W 005°20'7 7.4
2016-Apr-27 00:33N 35°59' W 005°13'  

Dump ship's entire track history